»·PEaware :: N13005 KSNA-KSAN

N13005 :: KSNA-KSAN

FLIGHT INFORMATION

Flight Status: Arrived
Operator: Privately registered:
United States
More flights under this callsign
Pilot: Kaloso N. (23070)
Aircraft: BOEING 737-800
(B738)
More flights by this aircraft type
Origin: KSNA John Wayne-Orange Co
United States
Destination: KSAN San Diego Intl-Lindbergh
United States
More flights between these airports :: More routes between these airports
Route: +V25 PACIF V208 LAX118 CARDI MZB320 MZB
File this flight plan on PilotEdge
Remarks: NONE
Altitude:
(Current/Filed)
13,000ft
Speed:
(Current/Filed)
295kts
Departed: 05-Jan-20 10:00 PM
Arrived: 05-Jan-20 10:32 PM
Distance/Time
Traveled:
66nm/0:31
Distance/Time
To Go:
Arrived

Flight Plot

Page will automatically refresh every two minutes.


Map Options




Map Legend


Flown Route
Filed Route
Departure Airport
Arrival Airport
Navaid (VOR, NDB)
Fix

Horizontal Profiles

Position Reports

Time Latitude Longitude Heading Altitude Ground
Speed
05-Jan-20 21:28 33.673825 -117.865889 118 63ft 0kts
05-Jan-20 21:29 33.673825 -117.865889 118 63ft 0kts
05-Jan-20 21:30 33.673825 -117.865889 118 63ft 0kts
05-Jan-20 21:31 33.673825 -117.865889 118 63ft 0kts
05-Jan-20 21:32 33.673825 -117.865889 118 63ft 0kts
05-Jan-20 21:33 33.673825 -117.865889 118 63ft 0kts
05-Jan-20 21:34 33.673825 -117.865889 118 63ft 0kts
05-Jan-20 21:35 33.673825 -117.865889 118 63ft 0kts
05-Jan-20 21:37 33.673825 -117.865889 118 63ft 0kts
05-Jan-20 21:38 33.673825 -117.865889 118 63ft 0kts
05-Jan-20 21:39 33.673825 -117.865889 118 63ft 0kts
05-Jan-20 21:40 33.673825 -117.865889 118 63ft 0kts
05-Jan-20 21:41 33.673825 -117.865889 118 63ft 0kts
05-Jan-20 21:42 33.673825 -117.865889 118 63ft 0kts
05-Jan-20 21:43 33.673825 -117.865889 118 63ft 0kts
05-Jan-20 21:44 33.673825 -117.865889 118 63ft 0kts
05-Jan-20 21:45 33.673825 -117.865889 118 63ft 0kts
05-Jan-20 21:46 33.673825 -117.865889 118 63ft 0kts
05-Jan-20 21:47 33.673825 -117.865889 118 63ft 0kts
05-Jan-20 21:48 33.673825 -117.865889 118 63ft 0kts
05-Jan-20 21:49 33.673825 -117.865889 118 63ft 0kts
05-Jan-20 21:50 33.673825 -117.865889 118 63ft 0kts
05-Jan-20 21:51 33.673825 -117.865889 118 63ft 0kts
05-Jan-20 21:52 33.673825 -117.865889 118 63ft 0kts
05-Jan-20 21:53 33.673825 -117.865889 118 63ft 0kts
05-Jan-20 21:54 33.673794 -117.865819 118 63ft 0kts
05-Jan-20 21:55 33.674854 -117.865716 0 63ft 21kts
05-Jan-20 21:56 33.679659 -117.862815 23 63ft 29kts
05-Jan-20 21:57 33.681151 -117.864198 298 63ft 0kts
05-Jan-20 21:58 33.681151 -117.864198 298 63ft 0kts
05-Jan-20 21:58 33.681197 -117.865314 212 63ft 16kts
05-Jan-20 22:00 33.655435 -117.881601 205 731ft 182kts
05-Jan-20 22:00 33.609771 -117.890883 186 2558ft 225kts
05-Jan-20 22:01 33.539683 -117.900678 186 4780ft 266kts
05-Jan-20 22:03 33.444745 -117.913904 186 7594ft 278kts
05-Jan-20 22:03 33.371124 -117.924131 186 9870ft 288kts
05-Jan-20 22:04 33.279462 -117.935669 175 10720ft 291kts
05-Jan-20 22:05 33.214634 -117.877000 128 10723ft 291kts
05-Jan-20 22:06 33.167300 -117.799412 107 10738ft 291kts
05-Jan-20 22:07 33.161043 -117.720283 92 10724ft 291kts
05-Jan-20 22:08 33.156602 -117.635403 95 10724ft 291kts
05-Jan-20 22:09 33.150842 -117.563902 95 10448ft 295kts
05-Jan-20 22:10 33.144747 -117.488176 95 8760ft 308kts
05-Jan-20 22:11 33.136838 -117.406341 108 6950ft 298kts
05-Jan-20 22:12 33.086413 -117.356319 158 6735ft 243kts
05-Jan-20 22:13 33.024651 -117.328589 159 6753ft 257kts
05-Jan-20 22:14 32.958979 -117.299174 159 6724ft 264kts
05-Jan-20 22:15 32.894963 -117.270494 159 6724ft 264kts
05-Jan-20 22:16 32.832125 -117.243552 160 6624ft 263kts
05-Jan-20 22:17 32.769913 -117.217039 157 6622ft 264kts
05-Jan-20 22:18 32.750301 -117.169414 84 6647ft 265kts
05-Jan-20 22:19 32.752327 -117.106699 91 6622ft 264kts
05-Jan-20 22:20 32.751080 -117.041552 91 6623ft 264kts
05-Jan-20 22:21 32.749660 -116.967370 91 6623ft 264kts
05-Jan-20 22:22 32.748236 -116.892023 91 6623ft 264kts
05-Jan-20 22:23 32.744328 -116.821752 113 6616ft 237kts
05-Jan-20 22:24 32.677555 -116.819376 244 4717ft 223kts
05-Jan-20 22:25 32.664816 -116.898630 281 4640ft 192kts
05-Jan-20 22:26 32.679888 -116.973630 278 3837ft 191kts
05-Jan-20 22:27 32.697603 -117.041649 286 2438ft 175kts
05-Jan-20 22:28 32.712003 -117.100746 286 1738ft 172kts
05-Jan-20 22:29 32.723185 -117.146899 286 757ft 162kts
05-Jan-20 22:30 32.733146 -117.188159 286 21ft 147kts
05-Jan-20 22:31 32.735051 -117.198558 238 17ft 0kts
05-Jan-20 22:32 32.734938 -117.198823 246 17ft 0kts
05-Jan-20 22:33 32.734175 -117.199683 213 17ft 6kts
05-Jan-20 22:34 32.733933 -117.200520 255 17ft 0kts
05-Jan-20 22:35 32.715093 -117.113488 286 1528ft 172kts
05-Jan-20 22:36 32.727912 -117.165874 287 363ft 164kts
05-Jan-20 22:37 32.713591 -117.107293 286 1630ft 172kts
05-Jan-20 22:38 32.726432 -117.160169 286 425ft 160kts
05-Jan-20 22:39 32.735413 -117.198067 230 17ft 14kts
05-Jan-20 22:40 32.722787 -117.145256 286 799ft 163kts
05-Jan-20 22:41 32.734633 -117.194080 286 21ft 96kts
05-Jan-20 22:42 32.735051 -117.198558 238 17ft 0kts
05-Jan-20 22:43 32.734938 -117.198823 246 17ft 0kts
05-Jan-20 22:44 32.734384 -117.199560 202 17ft 6kts
05-Jan-20 22:45 32.733933 -117.200520 255 17ft 0kts

Navigation Log

Ident Type
Flight plan parsing failed, navigation log unavailable